Time;durP1;ratioP1;P1;durP2;ratioP2;P2;SDS_P1;SDS_P2;PMS_P1;PMS_P2;Temp;Humidity;BMP_temperature;BMP_pressure;BME280_temperature;BME280_humidity;BME280_pressure;Samples;Min_cycle;Max_cycle;Signal;HPM_P1;HPM_P2
2021/08/31 00:01:02;;;;;;;11.00;7.90;;;14.00;99.90;;;15.01;100.00;98562.69;5052252;28;20497;-79
2021/08/31 00:03:31;;;;;;;15.60;8.97;;;14.00;99.90;;;15.01;100.00;98559.22;5041325;28;20545;-79
2021/08/31 00:06:00;;;;;;;10.77;7.97;;;14.00;99.90;;;14.99;100.00;98562.06;5051116;28;20464;-79
2021/08/31 00:08:30;;;;;;;20.50;8.20;;;14.10;99.90;;;14.98;100.00;98562.28;5047943;28;20514;-79
2021/08/31 00:10:58;;;;;;;11.83;7.23;;;14.10;99.90;;;14.98;100.00;98562.28;5052783;28;20506;-79
2021/08/31 00:13:27;;;;;;;11.83;7.97;;;14.00;99.90;;;14.99;100.00;98567.31;5044964;28;21012;-79
2021/08/31 00:15:55;;;;;;;10.30;7.80;;;14.00;99.90;;;14.94;100.00;98571.59;5049025;28;20461;-79
2021/08/31 00:18:24;;;;;;;10.07;7.90;;;13.90;99.90;;;14.88;100.00;98575.03;5045770;28;20493;-79
2021/08/31 00:20:52;;;;;;;13.60;9.27;;;13.80;99.90;;;14.86;100.00;98577.03;5044921;28;20461;-79
2021/08/31 00:23:21;;;;;;;14.33;7.20;;;13.80;99.90;;;14.81;100.00;98572.41;5046030;28;21034;-79
2021/08/31 00:25:53;;;;;;;18.93;8.03;;;13.80;99.90;;;14.78;100.00;98569.34;5050363;28;20493;-79
2021/08/31 00:28:21;;;;;;;15.37;8.17;;;13.80;99.90;;;14.79;100.00;98574.41;5050025;28;20464;-79
2021/08/31 00:30:50;;;;;;;13.37;8.53;;;13.80;99.90;;;14.80;100.00;98572.59;5042471;28;20473;-79
2021/08/31 00:33:19;;;;;;;18.47;8.87;;;13.80;99.90;;;14.78;100.00;98567.53;5046086;28;20465;-79
2021/08/31 00:35:47;;;;;;;13.30;9.07;;;13.80;99.90;;;14.77;100.00;98567.72;5044071;28;20465;-79
2021/08/31 00:38:16;;;;;;;12.10;8.67;;;13.80;99.90;;;14.57;100.00;98568.50;5050408;28;20492;-79
2021/08/31 00:40:46;;;;;;;13.97;7.70;;;13.50;99.90;;;14.62;100.00;98578.44;5048897;28;20846;-79
2021/08/31 00:43:18;;;;;;;11.30;8.10;;;13.70;99.90;;;14.67;100.00;98577.84;5045775;28;20474;-79
2021/08/31 00:45:48;;;;;;;23.03;8.73;;;13.60;99.90;;;14.67;100.00;98569.94;5043305;28;20522;-79
2021/08/31 00:48:19;;;;;;;13.60;9.00;;;13.70;99.90;;;14.65;100.00;98577.25;5049275;28;20548;-79
2021/08/31 00:50:51;;;;;;;15.57;8.70;;;13.70;99.90;;;14.66;100.00;98582.28;5044363;28;20458;-79
2021/08/31 00:53:20;;;;;;;11.37;8.43;;;13.60;99.90;;;14.60;100.00;98578.66;5047833;28;20461;-79
2021/08/31 00:55:48;;;;;;;12.73;8.10;;;13.60;99.90;;;14.52;100.00;98584.06;5041497;28;20454;-79
2021/08/31 00:58:18;;;;;;;15.47;8.20;;;13.50;99.90;;;14.55;100.00;98582.88;5051007;28;20488;-79
2021/08/31 01:00:47;;;;;;;13.07;7.90;;;13.60;99.90;;;14.56;100.00;98587.94;5051028;28;20851;-79
2021/08/31 01:03:16;;;;;;;16.73;9.53;;;13.60;99.90;;;14.59;100.00;98584.09;5036335;28;20489;-79
2021/08/31 01:05:44;;;;;;;10.83;7.37;;;13.60;99.90;;;14.58;100.00;98583.28;5041813;28;20448;-79
2021/08/31 01:08:13;;;;;;;17.00;8.43;;;13.70;99.90;;;14.56;100.00;98582.69;5044914;28;20537;-79
2021/08/31 01:10:42;;;;;;;13.30;8.20;;;13.60;99.90;;;14.58;100.00;98579.81;5042416;28;20444;-79
2021/08/31 01:13:10;;;;;;;13.60;8.23;;;13.60;99.90;;;14.56;100.00;98572.16;5044535;28;20451;-79
2021/08/31 01:15:42;;;;;;;14.53;8.20;;;13.60;99.90;;;14.56;100.00;98585.31;5047432;28;20468;-79
2021/08/31 01:18:21;;;;;;;11.20;8.17;;;13.60;99.90;;;14.58;100.00;98582.47;5047841;28;20497;-79
2021/08/31 01:20:50;;;;;;;14.20;8.07;;;13.60;99.90;;;14.59;100.00;98587.53;5041335;28;20453;-79
2021/08/31 01:23:20;;;;;;;14.43;8.00;;;13.60;99.90;;;14.59;100.00;98590.16;5049217;28;20453;-80
2021/08/31 01:25:51;;;;;;;21.73;9.53;;;13.60;99.90;;;14.58;100.00;98585.91;5042974;28;21081;-79
2021/08/31 01:28:22;;;;;;;10.67;8.10;;;13.60;99.90;;;14.56;100.00;98595.84;5044189;28;20461;-79
2021/08/31 01:30:52;;;;;;;16.33;7.83;;;13.60;99.90;;;14.53;100.00;98595.41;5042876;28;20465;-79
2021/08/31 01:33:25;;;;;;;12.10;8.17;;;13.50;99.90;;;14.50;100.00;98587.94;5039398;28;20493;-79
2021/08/31 01:35:53;;;;;;;12.33;9.20;;;13.40;99.90;;;14.52;100.00;98591.16;5049560;28;20491;-79
2021/08/31 01:38:22;;;;;;;21.80;10.47;;;13.50;99.90;;;14.54;100.00;98583.91;5042108;28;20550;-79
2021/08/31 01:40:52;;;;;;;12.90;8.70;;;13.60;99.90;;;14.54;100.00;98582.03;5047284;28;20538;-79
2021/08/31 01:43:25;;;;;;;14.20;8.70;;;13.70;99.90;;;14.55;100.00;98591.56;5047880;28;20484;-79
2021/08/31 01:45:55;;;;;;;21.00;9.20;;;13.60;99.90;;;14.56;100.00;98584.50;5050410;28;20445;-79
2021/08/31 01:48:23;;;;;;;14.43;8.93;;;13.70;99.90;;;14.54;100.00;98589.94;5042788;28;21023;-79
2021/08/31 01:50:52;;;;;;;14.37;8.00;;;13.60;99.90;;;14.53;100.00;98588.34;5047427;28;20473;-79
2021/08/31 01:53:20;;;;;;;19.70;9.10;;;13.50;99.90;;;14.49;100.00;98595.00;5048946;28;20458;-79
2021/08/31 01:55:49;;;;;;;16.33;9.17;;;13.50;99.90;;;14.42;100.00;98596.81;5051897;28;20464;-79
2021/08/31 01:58:19;;;;;;;11.73;8.60;;;13.60;99.90;;;14.31;100.00;98599.97;5045973;28;20567;-79
2021/08/31 02:00:47;;;;;;;12.67;8.67;;;13.30;99.90;;;14.29;100.00;98591.47;5045079;28;20465;-79
2021/08/31 02:03:16;;;;;;;12.50;8.57;;;13.30;99.90;;;14.32;100.00;98596.34;5045749;28;20465;-79
2021/08/31 02:05:45;;;;;;;17.37;9.37;;;13.20;99.90;;;14.28;100.00;98589.84;5040891;28;20556;-79
2021/08/31 02:08:14;;;;;;;15.20;9.30;;;13.20;99.90;;;14.30;100.00;98590.44;5051377;28;21103;-79
2021/08/31 02:10:43;;;;;;;14.53;9.33;;;13.20;99.90;;;14.28;100.00;98589.84;5062990;28;20506;-79
2021/08/31 02:13:12;;;;;;;21.97;10.37;;;13.20;99.90;;;14.28;100.00;98584.59;5061607;28;20514;-79
2021/08/31 02:15:42;;;;;;;14.80;9.10;;;13.30;99.90;;;14.32;100.00;98590.25;5051418;28;20461;-79
2021/08/31 02:18:10;;;;;;;23.10;10.50;;;13.30;99.90;;;14.27;100.00;98582.94;5043747;28;20493;-79
2021/08/31 02:20:39;;;;;;;12.37;9.00;;;13.30;99.90;;;14.28;100.00;98587.22;5053310;28;20469;-79
2021/08/31 02:23:07;;;;;;;14.10;9.03;;;13.30;99.90;;;14.27;100.00;98580.31;5037030;28;21040;-79
2021/08/31 02:25:36;;;;;;;15.27;8.93;;;13.30;99.90;;;14.25;100.00;98584.97;5047887;28;20540;-79
2021/08/31 02:28:05;;;;;;;13.20;8.97;;;13.30;99.90;;;14.17;100.00;98590.41;5041662;28;20548;-79
2021/08/31 02:30:33;;;;;;;16.97;9.60;;;13.30;99.90;;;14.03;100.00;98591.34;5045134;28;20519;-79
2021/08/31 02:33:03;;;;;;;12.27;9.23;;;13.00;99.90;;;14.05;100.00;98594.63;5044932;28;20858;-79
2021/08/31 02:35:32;;;;;;;15.33;9.80;;;13.10;99.90;;;14.08;100.00;98599.47;5038652;28;20977;-79
2021/08/31 02:38:01;;;;;;;15.50;9.17;;;13.00;99.90;;;14.07;100.00;98598.66;5040444;28;20527;-79
2021/08/31 02:40:29;;;;;;;16.50;10.07;;;13.00;99.90;;;14.05;100.00;98600.69;5043972;28;20473;-79
2021/08/31 02:42:58;;;;;;;14.10;10.00;;;13.00;99.90;;;13.91;100.00;98603.44;5047148;28;20460;-79
2021/08/31 02:45:27;;;;;;;18.00;9.40;;;12.90;99.90;;;13.83;100.00;98598.31;5046003;28;20522;-79
2021/08/31 02:47:55;;;;;;;13.80;9.37;;;12.80;99.90;;;13.88;100.00;98594.09;5048429;28;20515;-79
2021/08/31 02:50:25;;;;;;;18.23;10.07;;;12.80;99.90;;;13.86;100.00;98597.94;5048591;28;20464;-79
2021/08/31 02:52:54;;;;;;;15.50;8.40;;;12.80;99.90;;;13.90;100.00;98602.63;5049258;28;20890;-79
2021/08/31 02:55:22;;;;;;;12.37;9.37;;;12.90;99.90;;;13.93;100.00;98606.66;5045958;28;20453;-79
2021/08/31 02:57:51;;;;;;;14.20;10.30;;;12.90;99.90;;;13.94;100.00;98610.94;5046934;28;20462;-79
2021/08/31 03:00:20;;;;;;;24.10;9.90;;;13.00;99.90;;;13.95;100.00;98604.69;5041917;28;20511;-79
2021/08/31 03:02:48;;;;;;;14.23;10.20;;;12.90;99.90;;;13.93;100.00;98612.75;5044978;28;20601;-79
2021/08/31 03:05:17;;;;;;;14.07;9.83;;;13.00;99.90;;;13.95;100.00;98615.19;5040890;28;20826;-79
2021/08/31 03:07:47;;;;;;;15.63;9.70;;;13.00;99.90;;;13.96;100.00;98624.69;5038522;28;20511;-79
2021/08/31 03:10:15;;;;;;;16.83;9.80;;;13.00;99.90;;;13.99;100.00;98619.03;5039275;28;20450;-79
2021/08/31 03:12:44;;;;;;;20.73;9.93;;;13.00;99.90;;;13.97;100.00;98618.44;5046238;28;20810;-79
2021/08/31 03:15:13;;;;;;;15.97;9.20;;;13.00;99.90;;;13.94;100.00;98624.91;5051483;28;20491;-79
2021/08/31 03:17:41;;;;;;;14.80;9.50;;;13.00;99.90;;;13.94;100.00;98611.75;5035039;28;20450;-79
2021/08/31 03:20:11;;;;;;;16.77;9.50;;;13.00;99.90;;;13.91;100.00;98614.78;5038297;28;20552;-81
2021/08/31 03:22:40;;;;;;;13.80;10.00;;;13.00;99.90;;;13.90;100.00;98618.41;5050573;28;20491;-79
2021/08/31 03:25:11;;;;;;;22.60;11.00;;;13.00;99.90;;;13.92;100.00;98624.25;5040943;28;20538;-79
2021/08/31 03:27:39;;;;;;;18.53;9.97;;;13.00;99.90;;;13.94;100.00;98624.06;5041786;28;20449;-79
2021/08/31 03:30:09;;;;;;;16.00;9.40;;;13.00;99.90;;;13.94;100.00;98624.06;5047392;28;20507;-80
2021/08/31 03:32:41;;;;;;;18.57;10.40;;;13.00;99.90;;;13.91;100.00;98621.84;5049129;28;20465;-79
2021/08/31 03:35:12;;;;;;;21.57;10.00;;;13.00;99.90;;;13.90;100.00;98626.28;5049162;28;20969;-80
2021/08/31 03:37:40;;;;;;;15.90;10.27;;;12.90;99.90;;;13.90;100.00;98630.72;5051412;28;20457;-80
2021/08/31 03:40:11;;;;;;;14.77;10.50;;;13.00;99.90;;;13.91;100.00;98629.72;5048796;28;20528;-79
2021/08/31 03:42:40;;;;;;;15.27;9.30;;;12.90;99.90;;;13.94;100.00;98634.59;5047453;28;20515;-79
2021/08/31 03:45:10;;;;;;;18.43;11.10;;;12.90;99.90;;;13.93;100.00;98638.22;5051346;28;21036;-80
2021/08/31 03:47:39;;;;;;;28.23;13.80;;;13.00;99.90;;;13.94;100.00;98640.66;5045195;28;20500;-79
2021/08/31 03:50:09;;;;;;;17.50;10.50;;;13.00;99.90;;;13.98;100.00;98633.22;5045714;28;20516;-79
2021/08/31 03:52:38;;;;;;;15.97;10.60;;;13.00;99.90;;;13.99;100.00;98640.06;5053350;28;20453;-79
2021/08/31 03:55:10;;;;;;;15.00;9.80;;;13.10;99.90;;;13.98;100.00;98636.66;5050032;28;20448;-79
2021/08/31 03:57:38;;;;;;;14.90;10.70;;;13.10;99.90;;;14.00;100.00;98634.63;5053422;28;20452;-79
2021/08/31 04:00:08;;;;;;;21.90;11.40;;;13.10;99.90;;;14.00;100.00;98634.63;5049310;28;20496;-79
2021/08/31 04:02:37;;;;;;;21.47;11.53;;;13.10;99.90;;;13.99;100.00;98632.19;5053192;28;20515;-79
2021/08/31 04:05:07;;;;;;;21.40;11.73;;;13.10;99.90;;;13.99;100.00;98643.53;5058094;28;20453;-80
2021/08/31 04:07:36;;;;;;;17.27;11.17;;;13.20;99.90;;;13.99;100.00;98647.97;5054677;28;20445;-80
2021/08/31 04:10:06;;;;;;;28.80;17.37;;;13.20;99.90;;;14.00;100.00;98646.97;5057643;28;20475;-78
2021/08/31 04:12:36;;;;;;;25.30;12.90;;;13.20;99.90;;;14.01;100.00;98645.97;5048720;28;20457;-80
2021/08/31 04:15:05;;;;;;;17.37;10.90;;;13.10;99.90;;;14.02;100.00;98647.59;5053554;28;20485;-79
2021/08/31 04:17:34;;;;;;;16.57;10.57;;;13.10;99.90;;;13.99;100.00;98659.28;5053025;28;20981;-80
2021/08/31 04:20:02;;;;;;;17.10;11.60;;;13.10;99.90;;;13.94;100.00;98655.63;5049641;28;20590;-79
2021/08/31 04:22:31;;;;;;;15.07;10.70;;;13.00;99.90;;;13.98;100.00;98656.88;5048233;28;20524;-80
2021/08/31 04:25:00;;;;;;;28.23;16.70;;;13.00;99.90;;;13.94;100.00;98660.88;5040669;28;20449;-79
2021/08/31 04:27:28;;;;;;;20.40;13.20;;;13.10;99.90;;;13.94;100.00;98664.34;5049162;28;20506;-79
2021/08/31 04:29:58;;;;;;;19.07;9.80;;;13.10;99.90;;;13.96;100.00;98666.75;5049186;28;20504;-79
2021/08/31 04:32:26;;;;;;;21.40;11.10;;;13.10;99.90;;;13.92;100.00;98670.78;5058089;28;20440;-79
2021/08/31 04:34:57;;;;;;;16.50;11.33;;;13.10;99.90;;;13.92;100.00;98678.66;5049131;28;20931;-79
2021/08/31 04:37:26;;;;;;;15.97;9.73;;;13.00;99.90;;;13.91;100.00;98677.06;5049067;28;20447;-79
2021/08/31 04:39:54;;;;;;;14.47;10.67;;;13.00;99.90;;;13.90;100.00;98680.69;5052731;28;20558;-80
2021/08/31 04:42:23;;;;;;;128.23;71.33;;;13.00;99.90;;;13.87;100.00;98675.81;5051920;28;20638;-80
2021/08/31 04:44:51;;;;;;;23.50;12.43;;;13.00;99.90;;;13.85;100.00;98673.38;5052872;28;20938;-80
2021/08/31 04:47:21;;;;;;;17.40;10.90;;;13.00;99.90;;;13.86;100.00;98679.44;5046905;28;20489;-80
2021/08/31 04:49:50;;;;;;;24.27;10.70;;;13.00;99.90;;;13.87;100.00;98686.34;5050096;28;20511;-80
2021/08/31 04:52:18;;;;;;;21.93;10.60;;;13.00;99.90;;;13.85;100.00;98689.13;5052349;28;20533;-80
2021/08/31 04:54:47;;;;;;;17.30;10.00;;;12.90;99.90;;;13.84;100.00;98691.97;5047592;28;20573;-80
2021/08/31 04:57:20;;;;;;;12.43;9.93;;;12.90;99.90;;;13.87;100.00;98691.59;5045466;28;20449;-80
2021/08/31 04:59:49;;;;;;;16.37;11.00;;;13.00;99.90;;;13.85;100.00;98689.13;5035393;28;21237;-80
2021/08/31 05:02:17;;;;;;;16.87;10.30;;;13.00;99.90;;;13.82;100.00;98693.97;5037765;28;20465;-80
2021/08/31 05:04:47;;;;;;;22.20;11.07;;;13.00;99.90;;;13.83;100.00;98700.84;5033685;28;20446;-80
2021/08/31 05:07:16;;;;;;;18.90;11.10;;;13.00;99.90;;;13.81;100.00;98693.19;5034670;28;20446;-80
2021/08/31 05:09:45;;;;;;;20.47;11.70;;;12.90;99.90;;;13.86;100.00;98696.03;5034129;28;20512;-80
2021/08/31 05:12:13;;;;;;;17.43;11.10;;;12.90;99.90;;;13.88;100.00;98698.47;5045417;28;20453;-80
2021/08/31 05:14:41;;;;;;;15.53;10.73;;;13.00;99.90;;;13.89;100.00;98697.44;5034445;28;20485;-80
2021/08/31 05:17:10;;;;;;;20.27;11.40;;;13.00;99.90;;;13.91;100.00;98698.09;5049002;28;20546;-80
2021/08/31 05:19:38;;;;;;;21.97;13.17;;;13.00;99.90;;;13.95;100.00;98699.34;5042253;28;20547;-80
2021/08/31 05:22:08;;;;;;;32.33;14.30;;;13.10;99.90;;;14.04;100.00;98696.38;5042788;28;20454;-80
2021/08/31 05:24:38;;;;;;;26.47;13.17;;;13.30;99.90;;;14.10;100.00;98702.66;5032658;28;20493;-80
2021/08/31 05:27:07;;;;;;;23.20;13.93;;;13.30;99.90;;;14.15;100.00;98708.16;5045738;28;20574;-80
2021/08/31 05:29:36;;;;;;;22.50;14.40;;;13.40;99.90;;;14.20;100.00;98708.38;5038563;28;20946;-80
2021/08/31 05:32:05;;;;;;;17.77;11.83;;;13.50;99.90;;;14.26;100.00;98723.41;5036788;28;20449;-80
2021/08/31 05:34:34;;;;;;;21.57;12.87;;;13.60;99.90;;;14.31;100.00;98734.16;5039591;28;20458;-80
2021/08/31 05:37:02;;;;;;;20.23;13.03;;;13.60;99.90;;;14.37;100.00;98730.75;5052260;28;20499;-80
2021/08/31 05:39:35;;;;;;;16.50;11.90;;;13.70;99.90;;;14.41;100.00;98734.63;5050413;28;20445;-80
2021/08/31 05:42:06;;;;;;;23.07;11.80;;;13.70;99.90;;;14.43;100.00;98740.53;5040961;28;20465;-79
2021/08/31 05:44:36;;;;;;;18.17;12.23;;;13.70;99.90;;;14.47;100.00;98736.50;5052168;28;21008;-81
2021/08/31 05:47:06;;;;;;;16.50;11.63;;;13.80;99.90;;;14.49;100.00;98731.84;5051259;28;20856;-80
2021/08/31 05:49:36;;;;;;;19.20;12.23;;;13.70;99.90;;;14.53;100.00;98742.81;5050607;28;20511;-80
2021/08/31 05:52:05;;;;;;;15.00;11.30;;;13.70;99.90;;;14.55;100.00;98738.97;5048179;28;20476;-80
2021/08/31 05:54:36;;;;;;;18.43;11.73;;;13.70;99.90;;;14.56;100.00;98732.72;5041370;28;20453;-80
2021/08/31 05:57:10;;;;;;;18.33;13.50;;;13.80;99.90;;;14.60;100.00;98730.50;5051690;28;20445;-80
2021/08/31 05:59:40;;;;;;;21.30;11.90;;;13.80;99.90;;;14.60;100.00;98727.88;5051196;28;20453;-80
2021/08/31 06:02:09;;;;;;;25.70;12.67;;;13.90;99.90;;;14.65;100.00;98727.28;5044726;28;20470;-80
2021/08/31 06:04:38;;;;;;;17.00;11.20;;;13.90;99.90;;;14.70;100.00;98725.69;5047877;28;20445;-80
2021/08/31 06:07:08;;;;;;;21.70;11.17;;;13.90;99.90;;;14.74;100.00;98724.28;5041259;28;20457;-80
2021/08/31 06:09:41;;;;;;;16.17;10.67;;;14.00;99.90;;;14.77;100.00;98738.88;5047656;28;20483;-80
2021/08/31 06:12:13;;;;;;;22.20;11.10;;;14.00;99.90;;;14.81;100.00;98734.84;5047447;28;20449;-80
2021/08/31 06:14:42;;;;;;;20.63;9.60;;;14.00;99.90;;;14.86;100.00;98740.31;5049577;28;20457;-80
2021/08/31 06:17:13;;;;;;;16.03;11.60;;;14.10;99.90;;;14.85;100.00;98749.25;5049698;28;20484;-80
2021/08/31 06:19:42;;;;;;;19.53;11.37;;;14.10;99.90;;;14.89;100.00;98755.75;5045854;28;20511;-80
2021/08/31 06:22:10;;;;;;;18.90;10.37;;;14.10;99.90;;;14.93;100.00;98751.69;5050135;28;20477;-80
2021/08/31 06:24:40;;;;;;;17.63;10.27;;;14.10;99.90;;;14.95;100.00;98752.31;5047509;28;20548;-80
2021/08/31 06:27:09;;;;;;;17.00;10.60;;;14.10;99.90;;;14.98;100.00;98744.81;5045137;28;20981;-80
2021/08/31 06:29:37;;;;;;;17.77;11.17;;;14.20;99.90;;;15.01;100.00;98748.88;5046449;28;20465;-80
2021/08/31 06:32:07;;;;;;;16.13;9.63;;;14.20;99.90;;;15.05;100.00;98744.84;5046343;28;20457;-80
2021/08/31 06:34:36;;;;;;;17.80;10.20;;;14.30;99.90;;;15.08;100.00;98752.34;5045851;28;20476;-80
2021/08/31 06:37:04;;;;;;;15.30;10.20;;;14.30;99.90;;;15.13;100.00;98752.59;5043982;28;20484;-80
2021/08/31 06:39:33;;;;;;;17.17;10.30;;;14.40;99.90;;;15.14;100.00;98748.91;5041050;28;20509;-80
2021/08/31 06:42:03;;;;;;;18.63;10.10;;;14.50;99.90;;;15.17;100.00;98737.19;5045037;28;20570;-80
2021/08/31 06:44:32;;;;;;;22.53;11.27;;;14.50;99.90;;;15.19;100.00;98757.06;5051183;28;20919;-80
2021/08/31 06:47:00;;;;;;;15.13;10.10;;;14.50;99.90;;;15.25;100.00;98753.63;5051251;28;20522;-79
2021/08/31 06:49:29;;;;;;;17.43;11.60;;;14.60;99.90;;;15.26;100.00;98755.25;5049157;28;20530;-80
2021/08/31 06:51:57;;;;;;;14.90;10.20;;;14.70;99.90;;;15.27;100.00;98762.13;5050568;28;20499;-80
2021/08/31 06:54:26;;;;;;;13.27;9.07;;;14.60;99.90;;;15.29;100.00;98761.94;5050294;28;20442;-80
2021/08/31 06:56:54;;;;;;;14.63;9.40;;;14.60;99.90;;;15.31;100.00;98760.72;5045029;28;20942;-80
2021/08/31 06:59:24;;;;;;;18.80;10.10;;;14.70;99.90;;;15.36;100.00;98755.66;5045929;28;20452;-80
2021/08/31 07:01:54;;;;;;;17.07;8.90;;;14.70;99.90;;;15.42;100.00;98751.41;5050558;28;20512;-80
2021/08/31 07:04:23;;;;;;;14.87;10.33;;;14.80;99.90;;;15.43;100.00;98755.69;5059602;28;20941;-80
2021/08/31 07:06:52;;;;;;;13.70;8.93;;;14.80;99.90;;;15.48;100.00;98751.44;5047704;28;20938;-80
2021/08/31 07:09:20;;;;;;;14.53;9.70;;;14.80;99.90;;;15.50;100.00;98748.63;5050039;28;20450;-80
2021/08/31 07:11:49;;;;;;;13.80;9.80;;;14.80;99.90;;;15.53;100.00;98749.03;5043407;28;20453;-80
2021/08/31 07:14:17;;;;;;;13.80;9.83;;;14.90;99.90;;;15.59;100.00;98761.41;5040807;28;20864;-80
2021/08/31 07:16:47;;;;;;;16.23;9.20;;;15.00;99.90;;;15.57;100.00;98755.53;5048160;28;20452;-80
2021/08/31 07:19:15;;;;;;;19.67;9.90;;;14.90;99.90;;;15.63;100.00;98753.91;5046527;28;20476;-80
2021/08/31 07:21:45;;;;;;;13.17;9.43;;;15.00;99.90;;;15.65;100.00;98766.91;5042688;28;20489;-80
2021/08/31 07:24:13;;;;;;;12.70;9.13;;;15.10;99.90;;;15.65;100.00;98767.72;5046493;28;20979;-80
2021/08/31 07:26:42;;;;;;;16.33;9.20;;;15.00;99.90;;;15.72;100.00;98762.44;5042525;28;20879;-80
2021/08/31 07:29:10;;;;;;;18.60;9.40;;;15.00;99.90;;;15.77;100.00;98767.91;5048718;28;20526;-80
2021/08/31 07:31:39;;;;;;;15.80;9.17;;;15.10;99.90;;;15.83;100.00;98775.00;5045674;28;20441;-80
2021/08/31 07:34:09;;;;;;;16.13;9.30;;;15.20;99.90;;;15.90;100.00;98775.81;5047058;28;20449;-80
2021/08/31 07:36:37;;;;;;;13.40;9.43;;;15.20;99.90;;;15.94;100.00;98771.78;5053825;28;20453;-80
2021/08/31 07:39:06;;;;;;;13.67;9.67;;;15.30;99.90;;;15.98;100.00;98762.44;5045254;28;20450;-80
2021/08/31 07:41:34;;;;;;;14.40;8.70;;;15.40;99.90;;;16.04;100.00;98772.16;5043785;28;20492;-80
2021/08/31 07:44:03;;;;;;;13.37;9.53;;;15.40;99.90;;;16.05;100.00;98774.63;5048084;28;20447;-80
2021/08/31 07:46:32;;;;;;;12.70;8.17;;;15.40;99.90;;;16.12;100.00;98771.97;5046539;28;20559;-81
2021/08/31 07:49:00;;;;;;;12.40;8.60;;;15.50;99.90;;;16.10;100.00;98776.66;5041961;28;20447;-80
2021/08/31 07:51:30;;;;;;;13.27;9.00;;;15.50;99.90;;;16.16;100.00;98783.75;5046275;28;20454;-81
2021/08/31 07:53:59;;;;;;;11.00;8.40;;;15.60;99.90;;;16.23;100.00;98791.66;5044533;28;20988;-80
2021/08/31 07:56:27;;;;;;;14.03;8.83;;;15.60;99.90;;;16.26;100.00;98783.31;5046429;28;20467;-80
2021/08/31 07:58:56;;;;;;;13.27;8.20;;;15.60;99.90;;;16.30;100.00;98781.91;5046402;28;20462;-80
2021/08/31 08:01:24;;;;;;;10.50;7.77;;;15.70;99.90;;;16.31;100.00;98787.00;5049853;28;20493;-80
2021/08/31 08:03:53;;;;;;;13.57;9.47;;;15.70;99.90;;;16.31;100.00;98787.00;5042930;28;20568;-80
2021/08/31 08:06:21;;;;;;;12.67;8.50;;;15.70;99.90;;;16.36;100.00;98781.88;5049182;28;20460;-81
2021/08/31 08:08:51;;;;;;;11.90;7.57;;;15.70;99.90;;;16.41;100.00;98784.75;5042120;28;20450;-80
2021/08/31 08:11:20;;;;;;;9.53;7.00;;;15.70;99.90;;;16.46;100.00;98786.75;5052247;28;20590;-80
2021/08/31 08:13:49;;;;;;;14.30;9.03;;;15.80;99.90;;;16.49;100.00;98794.25;5045524;28;20449;-80
2021/08/31 08:16:18;;;;;;;11.43;8.07;;;15.80;99.90;;;16.49;100.00;98787.13;5048796;28;20464;-80
2021/08/31 08:18:47;;;;;;;11.10;8.10;;;15.90;99.90;;;16.58;100.00;98791.22;5045834;28;20457;-80
2021/08/31 08:21:15;;;;;;;16.93;7.83;;;15.90;99.90;;;16.65;100.00;98803.59;5053697;28;20492;-80
2021/08/31 08:23:44;;;;;;;13.10;7.27;;;16.00;99.90;;;16.69;100.00;98804.81;5053455;28;20487;-80
2021/08/31 08:26:14;;;;;;;13.27;7.73;;;16.00;99.90;;;16.73;100.00;98808.69;5046941;28;20535;-80
2021/08/31 08:28:43;;;;;;;9.87;7.30;;;16.00;99.90;;;16.76;100.00;98810.91;5049126;28;20461;-80
2021/08/31 08:31:12;;;;;;;13.70;7.13;;;16.10;99.90;;;16.83;100.00;98811.69;5050158;28;20975;-80
2021/08/31 08:33:40;;;;;;;14.60;7.50;;;16.20;99.90;;;16.86;100.00;98814.72;5047558;28;21003;-81
2021/08/31 08:36:09;;;;;;;15.43;8.73;;;16.20;99.90;;;16.87;100.00;98816.31;5048660;28;20861;-81
2021/08/31 08:38:38;;;;;;;19.93;7.53;;;16.20;99.90;;;16.86;100.00;98814.72;5053134;28;20512;-81
2021/08/31 08:41:07;;;;;;;13.50;7.50;;;16.20;99.90;;;16.87;100.00;98821.63;5042238;28;20513;-80
2021/08/31 08:43:37;;;;;;;9.73;7.73;;;16.20;99.90;;;16.89;100.00;98816.13;5041157;28;20810;-81
2021/08/31 08:46:08;;;;;;;11.27;7.50;;;16.20;99.90;;;16.92;100.00;98818.34;5060183;28;20453;-80
2021/08/31 08:48:36;;;;;;;13.07;7.27;;;16.30;99.90;;;16.83;100.00;98824.91;5046981;28;20467;-81
2021/08/31 08:51:07;;;;;;;11.10;7.83;;;16.10;99.90;;;16.85;100.00;98822.84;5047614;28;21004;-80
2021/08/31 08:53:36;;;;;;;10.80;7.27;;;16.10;99.90;;;16.92;100.00;98828.94;5046770;28;20472;-80
2021/08/31 08:56:05;;;;;;;11.87;7.60;;;16.20;99.90;;;16.97;100.00;98826.47;5049245;28;20503;-80
2021/08/31 08:58:34;;;;;;;15.57;8.50;;;16.20;99.90;;;16.91;100.00;98832.56;5046633;28;20453;-80
2021/08/31 09:01:08;;;;;;;11.00;7.27;;;16.10;99.90;;;16.89;100.00;98832.00;5049323;28;20556;-80
2021/08/31 09:03:39;;;;;;;10.50;7.30;;;16.20;99.90;;;16.88;100.00;98843.56;5044625;28;20537;-80
2021/08/31 09:06:11;;;;;;;8.07;6.80;;;16.30;99.90;;;16.92;100.00;98842.13;5046302;28;20453;-80
2021/08/31 09:08:43;;;;;;;13.33;6.87;;;16.30;99.90;;;17.03;100.00;98836.22;5047668;28;20503;-80
2021/08/31 09:11:21;;;;;;;13.03;7.20;;;16.30;99.90;;;17.11;100.00;98828.84;5050485;28;21044;-80
2021/08/31 09:13:51;;;;;;;9.03;6.83;;;16.40;99.90;;;17.21;100.00;98841.66;5044575;28;20961;-80
2021/08/31 09:16:28;;;;;;;10.57;6.83;;;16.50;99.90;;;17.27;100.00;98830.22;5051958;28;20441;-80
2021/08/31 09:18:59;;;;;;;11.70;6.13;;;16.60;99.90;;;17.36;100.00;98841.34;5047143;28;20965;-81
2021/08/31 09:21:29;;;;;;;6.80;5.30;;;16.70;99.90;;;17.42;100.00;98836.03;5053988;28;21035;-80
2021/08/31 09:24:00;;;;;;;14.60;6.53;;;16.80;99.90;;;17.50;100.00;98838.44;5047963;28;20453;-81
2021/08/31 09:26:40;;;;;;;6.57;5.33;;;16.80;99.90;;;17.55;100.00;98840.47;5047557;28;20532;-81
2021/08/31 09:29:23;;;;;;;8.00;6.13;;;17.00;99.90;;;17.61;100.00;98844.94;5047742;28;20456;-80
2021/08/31 09:31:57;;;;;;;9.30;6.10;;;17.00;99.90;;;17.63;100.00;98847.38;5050634;28;20935;-81
2021/08/31 09:34:42;;;;;;;9.03;6.30;;;17.10;99.90;;;17.69;100.00;98846.50;5046193;28;20504;-82
2021/08/31 09:37:46;;;;;;;7.83;5.83;;;17.10;99.90;;;17.78;100.00;98851.34;5042103;28;20452;-81
2021/08/31 09:40:17;;;;;;;9.50;6.30;;;17.30;99.90;;;17.83;100.00;98846.22;4963391;28;20953;-81
2021/08/31 09:42:59;;;;;;;9.00;6.10;;;17.30;99.90;;;17.95;100.00;98855.09;5029338;28;20584;-80
2021/08/31 09:45:32;;;;;;;7.10;5.50;;;17.40;99.90;;;17.94;100.00;98855.31;5047028;28;20514;-81
2021/08/31 09:48:04;;;;;;;8.23;5.70;;;17.40;99.90;;;17.91;100.00;98850.47;5049178;28;20870;-81
2021/08/31 09:50:38;;;;;;;9.63;7.00;;;17.20;99.90;;;17.93;100.00;98851.84;5051438;28;20452;-80
2021/08/31 09:53:17;;;;;;;7.07;5.53;;;17.30;99.90;;;18.03;100.00;98846.06;5051149;28;20449;-81
2021/08/31 09:55:49;;;;;;;6.70;5.20;;;17.40;99.90;;;18.08;100.00;98856.84;5052456;28;21412;-80
2021/08/31 09:58:23;;;;;;;10.53;5.50;;;17.40;99.90;;;18.11;100.00;98853.78;5047247;28;20941;-81
2021/08/31 10:00:54;;;;;;;9.17;5.90;;;17.40;99.90;;;18.11;100.00;98856.41;5047935;28;20543;-80
2021/08/31 10:03:26;;;;;;;9.70;6.27;;;17.40;99.90;;;18.09;100.00;98863.75;5045445;28;20839;-81
2021/08/31 10:05:58;;;;;;;9.40;5.87;;;17.30;99.90;;;18.12;100.00;98858.00;5045576;28;20498;-80
2021/08/31 10:08:28;;;;;;;8.20;5.00;;;17.40;99.90;;;18.12;100.00;98858.00;5043906;28;20450;-81
2021/08/31 10:10:57;;;;;;;9.83;6.20;;;17.40;99.90;;;18.15;100.00;98857.63;5054090;28;20506;-81
2021/08/31 10:13:28;;;;;;;7.70;6.00;;;17.40;99.90;;;18.23;100.00;98859.16;5049538;28;20804;-81
2021/08/31 10:15:59;;;;;;;7.23;5.13;;;17.50;99.90;;;18.30;100.00;98854.63;5045414;28;20445;-81